sensor_id;sensor_type;location;lat;lon;timestamp;temperature;humidity
40952;DHT22;26682;51.660;19.338;2023-04-29T00:02:09;7.80;97.00
40952;DHT22;26682;51.660;19.338;2023-04-29T00:04:52;7.80;96.80
40952;DHT22;26682;51.660;19.338;2023-04-29T00:07:36;7.90;96.80
40952;DHT22;26682;51.660;19.338;2023-04-29T00:10:21;7.80;96.80
40952;DHT22;26682;51.660;19.338;2023-04-29T00:13:04;7.90;96.80
40952;DHT22;26682;51.660;19.338;2023-04-29T00:15:47;7.90;96.80
40952;DHT22;26682;51.660;19.338;2023-04-29T00:18:30;7.90;96.90
40952;DHT22;26682;51.660;19.338;2023-04-29T00:21:13;7.90;96.80
40952;DHT22;26682;51.660;19.338;2023-04-29T00:23:56;7.90;96.80
40952;DHT22;26682;51.660;19.338;2023-04-29T00:26:38;7.90;96.70
40952;DHT22;26682;51.660;19.338;2023-04-29T00:29:24;7.90;96.80
40952;DHT22;26682;51.660;19.338;2023-04-29T00:32:06;7.90;96.90
40952;DHT22;26682;51.660;19.338;2023-04-29T00:34:49;7.90;96.70
40952;DHT22;26682;51.660;19.338;2023-04-29T00:37:32;7.90;96.70
40952;DHT22;26682;51.660;19.338;2023-04-29T00:40:16;8.00;96.70
40952;DHT22;26682;51.660;19.338;2023-04-29T00:42:58;8.00;96.70
40952;DHT22;26682;51.660;19.338;2023-04-29T00:45:41;8.00;96.80
40952;DHT22;26682;51.660;19.338;2023-04-29T00:48:24;8.00;96.80
40952;DHT22;26682;51.660;19.338;2023-04-29T00:51:07;8.00;96.80
40952;DHT22;26682;51.660;19.338;2023-04-29T00:53:49;8.00;96.90
40952;DHT22;26682;51.660;19.338;2023-04-29T00:56:34;8.00;96.90
40952;DHT22;26682;51.660;19.338;2023-04-29T00:59:17;7.90;96.90
40952;DHT22;26682;51.660;19.338;2023-04-29T01:02:01;8.00;97.00
40952;DHT22;26682;51.660;19.338;2023-04-29T01:04:45;7.90;96.80
40952;DHT22;26682;51.660;19.338;2023-04-29T01:07:48;7.90;96.90
40952;DHT22;26682;51.660;19.338;2023-04-29T01:11:03;7.90;96.90
40952;DHT22;26682;51.660;19.338;2023-04-29T01:13:49;7.90;96.90
40952;DHT22;26682;51.660;19.338;2023-04-29T01:16:50;7.90;96.80
40952;DHT22;26682;51.660;19.338;2023-04-29T01:19:46;7.90;96.90
40952;DHT22;26682;51.660;19.338;2023-04-29T01:22:29;7.90;96.90
40952;DHT22;26682;51.660;19.338;2023-04-29T01:25:11;7.90;96.90
40952;DHT22;26682;51.660;19.338;2023-04-29T01:31:30;7.80;97.00
40952;DHT22;26682;51.660;19.338;2023-04-29T01:34:22;7.90;97.20
40952;DHT22;26682;51.660;19.338;2023-04-29T01:40:14;7.80;97.10
40952;DHT22;26682;51.660;19.338;2023-04-29T01:43:10;7.80;97.20
40952;DHT22;26682;51.660;19.338;2023-04-29T01:45:58;7.80;97.20
40952;DHT22;26682;51.660;19.338;2023-04-29T01:48:42;7.80;97.40
40952;DHT22;26682;51.660;19.338;2023-04-29T01:51:24;7.90;97.40
40952;DHT22;26682;51.660;19.338;2023-04-29T01:54:07;7.90;97.50
40952;DHT22;26682;51.660;19.338;2023-04-29T01:56:49;7.90;97.50
40952;DHT22;26682;51.660;19.338;2023-04-29T01:59:41;7.90;97.60
40952;DHT22;26682;51.660;19.338;2023-04-29T02:02:46;7.90;97.70
40952;DHT22;26682;51.660;19.338;2023-04-29T02:05:48;7.90;97.80
40952;DHT22;26682;51.660;19.338;2023-04-29T02:08:31;7.90;97.90
40952;DHT22;26682;51.660;19.338;2023-04-29T02:11:15;7.90;97.90
40952;DHT22;26682;51.660;19.338;2023-04-29T02:13:58;7.90;97.90
40952;DHT22;26682;51.660;19.338;2023-04-29T02:16:44;7.90;98.00
40952;DHT22;26682;51.660;19.338;2023-04-29T02:19:28;7.90;98.00
40952;DHT22;26682;51.660;19.338;2023-04-29T02:22:11;7.90;98.10
40952;DHT22;26682;51.660;19.338;2023-04-29T02:24:55;7.90;98.10
40952;DHT22;26682;51.660;19.338;2023-04-29T02:27:38;7.90;98.10
40952;DHT22;26682;51.660;19.338;2023-04-29T02:30:20;7.90;98.20
40952;DHT22;26682;51.660;19.338;2023-04-29T02:33:04;7.90;98.10
40952;DHT22;26682;51.660;19.338;2023-04-29T02:35:49;7.90;98.30
40952;DHT22;26682;51.660;19.338;2023-04-29T02:38:32;7.90;98.30
40952;DHT22;26682;51.660;19.338;2023-04-29T02:41:18;7.90;98.70
40952;DHT22;26682;51.660;19.338;2023-04-29T02:44:02;7.80;98.60
40952;DHT22;26682;51.660;19.338;2023-04-29T02:46:45;7.80;98.70
40952;DHT22;26682;51.660;19.338;2023-04-29T02:49:29;7.80;98.90
40952;DHT22;26682;51.660;19.338;2023-04-29T02:52:11;7.70;98.90
40952;DHT22;26682;51.660;19.338;2023-04-29T02:54:55;7.70;99.00
40952;DHT22;26682;51.660;19.338;2023-04-29T02:57:38;7.70;99.10
40952;DHT22;26682;51.660;19.338;2023-04-29T03:00:21;7.70;99.20
40952;DHT22;26682;51.660;19.338;2023-04-29T03:03:04;7.70;99.80
40952;DHT22;26682;51.660;19.338;2023-04-29T03:05:47;7.80;99.30
40952;DHT22;26682;51.660;19.338;2023-04-29T03:08:29;7.90;99.90
40952;DHT22;26682;51.660;19.338;2023-04-29T03:11:12;7.80;99.40
40952;DHT22;26682;51.660;19.338;2023-04-29T03:13:54;7.70;99.80
40952;DHT22;26682;51.660;19.338;2023-04-29T03:16:38;7.70;99.90
40952;DHT22;26682;51.660;19.338;2023-04-29T03:19:20;7.60;99.90
40952;DHT22;26682;51.660;19.338;2023-04-29T03:22:04;7.60;99.90
40952;DHT22;26682;51.660;19.338;2023-04-29T03:24:47;7.60;99.90
40952;DHT22;26682;51.660;19.338;2023-04-29T03:27:30;7.60;99.90
40952;DHT22;26682;51.660;19.338;2023-04-29T03:30:14;7.60;99.90
40952;DHT22;26682;51.660;19.338;2023-04-29T03:33:03;7.60;99.90
40952;DHT22;26682;51.660;19.338;2023-04-29T03:35:46;7.60;99.90
40952;DHT22;26682;51.660;19.338;2023-04-29T03:39:00;7.60;99.90
40952;DHT22;26682;51.660;19.338;2023-04-29T03:41:45;7.50;99.90
40952;DHT22;26682;51.660;19.338;2023-04-29T03:44:29;7.50;99.90
40952;DHT22;26682;51.660;19.338;2023-04-29T03:47:11;7.50;99.90
40952;DHT22;26682;51.660;19.338;2023-04-29T03:49:55;7.50;99.90
40952;DHT22;26682;51.660;19.338;2023-04-29T03:52:37;7.50;99.90
40952;DHT22;26682;51.660;19.338;2023-04-29T03:55:25;7.50;99.90
40952;DHT22;26682;51.660;19.338;2023-04-29T03:58:08;7.50;99.90
40952;DHT22;26682;51.660;19.338;2023-04-29T04:00:51;7.60;99.90
40952;DHT22;26682;51.660;19.338;2023-04-29T04:03:37;7.60;99.90
40952;DHT22;26682;51.660;19.338;2023-04-29T04:06:20;7.60;99.90
40952;DHT22;26682;51.660;19.338;2023-04-29T04:09:03;7.70;99.90
40952;DHT22;26682;51.660;19.338;2023-04-29T04:11:48;7.70;99.90
40952;DHT22;26682;51.660;19.338;2023-04-29T04:14:31;7.80;99.90
40952;DHT22;26682;51.660;19.338;2023-04-29T04:17:14;7.80;99.90
40952;DHT22;26682;51.660;19.338;2023-04-29T04:19:56;7.90;99.90
40952;DHT22;26682;51.660;19.338;2023-04-29T04:22:39;8.00;99.90
40952;DHT22;26682;51.660;19.338;2023-04-29T04:25:30;8.10;99.90
40952;DHT22;26682;51.660;19.338;2023-04-29T04:28:26;8.10;99.90
40952;DHT22;26682;51.660;19.338;2023-04-29T04:31:29;8.20;99.90
40952;DHT22;26682;51.660;19.338;2023-04-29T04:34:12;8.30;99.90
40952;DHT22;26682;51.660;19.338;2023-04-29T04:36:54;8.30;99.90
40952;DHT22;26682;51.660;19.338;2023-04-29T04:39:38;8.40;99.90
40952;DHT22;26682;51.660;19.338;2023-04-29T04:42:21;8.40;99.90
40952;DHT22;26682;51.660;19.338;2023-04-29T04:45:06;8.50;99.90
40952;DHT22;26682;51.660;19.338;2023-04-29T04:48:03;8.60;99.90
40952;DHT22;26682;51.660;19.338;2023-04-29T04:50:48;8.70;99.90
40952;DHT22;26682;51.660;19.338;2023-04-29T04:53:31;8.70;99.90
40952;DHT22;26682;51.660;19.338;2023-04-29T04:56:19;8.90;99.90
40952;DHT22;26682;51.660;19.338;2023-04-29T04:59:03;8.90;99.90
40952;DHT22;26682;51.660;19.338;2023-04-29T05:01:46;8.90;99.90
40952;DHT22;26682;51.660;19.338;2023-04-29T05:04:28;9.00;99.90
40952;DHT22;26682;51.660;19.338;2023-04-29T05:07:11;9.10;99.90
40952;DHT22;26682;51.660;19.338;2023-04-29T05:10:13;9.20;99.90
40952;DHT22;26682;51.660;19.338;2023-04-29T05:13:03;9.30;99.90
40952;DHT22;26682;51.660;19.338;2023-04-29T05:15:45;9.40;99.90
40952;DHT22;26682;51.660;19.338;2023-04-29T05:18:33;9.50;99.90
40952;DHT22;26682;51.660;19.338;2023-04-29T05:21:15;9.60;99.90
40952;DHT22;26682;51.660;19.338;2023-04-29T05:24:00;9.60;99.90
40952;DHT22;26682;51.660;19.338;2023-04-29T05:26:42;9.50;99.60
40952;DHT22;26682;51.660;19.338;2023-04-29T05:29:26;9.50;99.90
40952;DHT22;26682;51.660;19.338;2023-04-29T05:32:13;9.50;99.80
40952;DHT22;26682;51.660;19.338;2023-04-29T05:34:56;9.60;99.80
40952;DHT22;26682;51.660;19.338;2023-04-29T05:37:38;9.60;99.50
40952;DHT22;26682;51.660;19.338;2023-04-29T05:40:44;9.70;99.90
40952;DHT22;26682;51.660;19.338;2023-04-29T05:43:42;9.90;99.50
40952;DHT22;26682;51.660;19.338;2023-04-29T05:46:28;10.10;99.10
40952;DHT22;26682;51.660;19.338;2023-04-29T05:49:10;10.00;98.40
40952;DHT22;26682;51.660;19.338;2023-04-29T05:51:56;10.20;98.40
40952;DHT22;26682;51.660;19.338;2023-04-29T05:54:38;10.60;98.50
40952;DHT22;26682;51.660;19.338;2023-04-29T05:57:21;11.10;97.70
40952;DHT22;26682;51.660;19.338;2023-04-29T06:00:04;11.30;96.80
40952;DHT22;26682;51.660;19.338;2023-04-29T06:02:54;11.70;96.70
40952;DHT22;26682;51.660;19.338;2023-04-29T06:05:41;11.90;96.70
40952;DHT22;26682;51.660;19.338;2023-04-29T06:09:00;11.90;95.80
40952;DHT22;26682;51.660;19.338;2023-04-29T06:11:47;11.80;95.60
40952;DHT22;26682;51.660;19.338;2023-04-29T06:14:30;11.80;95.50
40952;DHT22;26682;51.660;19.338;2023-04-29T06:17:13;11.60;95.70
40952;DHT22;26682;51.660;19.338;2023-04-29T06:19:56;11.50;96.00
40952;DHT22;26682;51.660;19.338;2023-04-29T06:22:39;11.40;96.10
40952;DHT22;26682;51.660;19.338;2023-04-29T06:25:22;11.40;96.60
40952;DHT22;26682;51.660;19.338;2023-04-29T06:28:05;11.50;96.20
40952;DHT22;26682;51.660;19.338;2023-04-29T06:30:51;11.40;95.80
40952;DHT22;26682;51.660;19.338;2023-04-29T06:33:34;11.50;96.20
40952;DHT22;26682;51.660;19.338;2023-04-29T06:36:17;11.50;96.00
40952;DHT22;26682;51.660;19.338;2023-04-29T06:39:21;11.60;95.80
40952;DHT22;26682;51.660;19.338;2023-04-29T06:42:23;11.80;95.60
40952;DHT22;26682;51.660;19.338;2023-04-29T06:45:25;12.10;95.40
40952;DHT22;26682;51.660;19.338;2023-04-29T06:48:15;12.30;95.00
40952;DHT22;26682;51.660;19.338;2023-04-29T06:51:02;12.30;95.10
40952;DHT22;26682;51.660;19.338;2023-04-29T06:53:45;12.40;94.20
40952;DHT22;26682;51.660;19.338;2023-04-29T06:56:29;12.40;94.50
40952;DHT22;26682;51.660;19.338;2023-04-29T06:59:11;12.60;94.30
40952;DHT22;26682;51.660;19.338;2023-04-29T07:01:54;12.60;93.80
40952;DHT22;26682;51.660;19.338;2023-04-29T07:04:37;12.80;93.90
40952;DHT22;26682;51.660;19.338;2023-04-29T07:07:20;12.90;93.60
40952;DHT22;26682;51.660;19.338;2023-04-29T07:10:02;13.10;93.70
40952;DHT22;26682;51.660;19.338;2023-04-29T07:12:45;13.20;94.00
40952;DHT22;26682;51.660;19.338;2023-04-29T07:15:32;13.30;93.80
40952;DHT22;26682;51.660;19.338;2023-04-29T07:18:15;13.30;93.90
40952;DHT22;26682;51.660;19.338;2023-04-29T07:21:01;13.30;93.90
40952;DHT22;26682;51.660;19.338;2023-04-29T07:23:46;13.30;94.30
40952;DHT22;26682;51.660;19.338;2023-04-29T07:26:29;13.40;94.80
40952;DHT22;26682;51.660;19.338;2023-04-29T07:29:12;13.50;94.50
40952;DHT22;26682;51.660;19.338;2023-04-29T07:31:55;13.50;94.50
40952;DHT22;26682;51.660;19.338;2023-04-29T07:34:38;13.40;94.00
40952;DHT22;26682;51.660;19.338;2023-04-29T07:37:21;13.30;94.60
40952;DHT22;26682;51.660;19.338;2023-04-29T07:40:03;13.20;94.90
40952;DHT22;26682;51.660;19.338;2023-04-29T07:42:47;13.20;95.20
40952;DHT22;26682;51.660;19.338;2023-04-29T07:45:29;13.20;95.30
40952;DHT22;26682;51.660;19.338;2023-04-29T07:48:11;13.40;95.70
40952;DHT22;26682;51.660;19.338;2023-04-29T07:50:54;13.50;95.60
40952;DHT22;26682;51.660;19.338;2023-04-29T07:53:37;13.60;95.40
40952;DHT22;26682;51.660;19.338;2023-04-29T07:56:19;13.60;95.50
40952;DHT22;26682;51.660;19.338;2023-04-29T07:59:02;13.70;95.70
40952;DHT22;26682;51.660;19.338;2023-04-29T08:01:45;13.70;95.90
40952;DHT22;26682;51.660;19.338;2023-04-29T08:04:28;13.80;95.40
40952;DHT22;26682;51.660;19.338;2023-04-29T08:07:18;13.90;95.50
40952;DHT22;26682;51.660;19.338;2023-04-29T08:10:05;13.90;95.50
40952;DHT22;26682;51.660;19.338;2023-04-29T08:12:51;14.00;95.40
40952;DHT22;26682;51.660;19.338;2023-04-29T08:15:33;14.10;95.70
40952;DHT22;26682;51.660;19.338;2023-04-29T08:18:16;14.20;95.40
40952;DHT22;26682;51.660;19.338;2023-04-29T08:20:59;14.20;95.40
40952;DHT22;26682;51.660;19.338;2023-04-29T08:23:41;14.20;95.50
40952;DHT22;26682;51.660;19.338;2023-04-29T08:26:24;14.20;95.40
40952;DHT22;26682;51.660;19.338;2023-04-29T08:29:08;14.40;95.40
40952;DHT22;26682;51.660;19.338;2023-04-29T08:31:50;14.30;95.70
40952;DHT22;26682;51.660;19.338;2023-04-29T08:34:33;14.20;95.70
40952;DHT22;26682;51.660;19.338;2023-04-29T08:37:17;14.10;96.20
40952;DHT22;26682;51.660;19.338;2023-04-29T08:40:00;14.10;96.40
40952;DHT22;26682;51.660;19.338;2023-04-29T08:42:44;14.10;96.70
40952;DHT22;26682;51.660;19.338;2023-04-29T08:45:30;14.20;96.90
40952;DHT22;26682;51.660;19.338;2023-04-29T08:48:16;14.20;96.80
40952;DHT22;26682;51.660;19.338;2023-04-29T08:50:58;14.10;96.80
40952;DHT22;26682;51.660;19.338;2023-04-29T08:53:43;14.00;96.40
40952;DHT22;26682;51.660;19.338;2023-04-29T08:56:30;13.90;96.80
40952;DHT22;26682;51.660;19.338;2023-04-29T08:59:17;13.80;97.00
40952;DHT22;26682;51.660;19.338;2023-04-29T09:01:59;13.70;97.50
40952;DHT22;26682;51.660;19.338;2023-04-29T09:05:05;13.90;97.50
40952;DHT22;26682;51.660;19.338;2023-04-29T09:07:50;13.90;97.70
40952;DHT22;26682;51.660;19.338;2023-04-29T09:10:38;13.90;97.60
40952;DHT22;26682;51.660;19.338;2023-04-29T09:13:25;14.00;98.00
40952;DHT22;26682;51.660;19.338;2023-04-29T09:16:13;14.10;97.90
40952;DHT22;26682;51.660;19.338;2023-04-29T09:18:58;14.30;97.70
40952;DHT22;26682;51.660;19.338;2023-04-29T09:21:53;14.50;97.10
40952;DHT22;26682;51.660;19.338;2023-04-29T09:24:37;14.70;97.10
40952;DHT22;26682;51.660;19.338;2023-04-29T09:27:27;14.90;96.80
40952;DHT22;26682;51.660;19.338;2023-04-29T09:30:10;15.00;96.00
40952;DHT22;26682;51.660;19.338;2023-04-29T09:33:08;15.20;96.20
40952;DHT22;26682;51.660;19.338;2023-04-29T09:35:51;15.50;96.40
40952;DHT22;26682;51.660;19.338;2023-04-29T09:38:33;15.50;96.10
40952;DHT22;26682;51.660;19.338;2023-04-29T09:41:17;15.70;95.90
40952;DHT22;26682;51.660;19.338;2023-04-29T09:44:08;15.80;95.80
40952;DHT22;26682;51.660;19.338;2023-04-29T09:46:54;15.90;95.50
40952;DHT22;26682;51.660;19.338;2023-04-29T09:49:40;15.90;94.90
40952;DHT22;26682;51.660;19.338;2023-04-29T09:52:23;16.00;94.40
40952;DHT22;26682;51.660;19.338;2023-04-29T09:55:07;16.20;94.00
40952;DHT22;26682;51.660;19.338;2023-04-29T09:57:50;16.30;93.90
40952;DHT22;26682;51.660;19.338;2023-04-29T10:00:33;16.30;92.90
40952;DHT22;26682;51.660;19.338;2023-04-29T10:03:16;16.20;92.40
40952;DHT22;26682;51.660;19.338;2023-04-29T10:06:00;16.20;92.80
40952;DHT22;26682;51.660;19.338;2023-04-29T10:08:43;16.10;92.40
40952;DHT22;26682;51.660;19.338;2023-04-29T10:11:27;16.00;92.80
40952;DHT22;26682;51.660;19.338;2023-04-29T10:14:16;15.90;93.30
40952;DHT22;26682;51.660;19.338;2023-04-29T10:20:14;15.80;93.20
40952;DHT22;26682;51.660;19.338;2023-04-29T10:23:00;15.60;93.20
40952;DHT22;26682;51.660;19.338;2023-04-29T10:25:45;15.50;93.50
40952;DHT22;26682;51.660;19.338;2023-04-29T10:28:30;15.40;94.40
40952;DHT22;26682;51.660;19.338;2023-04-29T10:31:14;15.30;95.60
40952;DHT22;26682;51.660;19.338;2023-04-29T10:33:58;15.30;96.70
40952;DHT22;26682;51.660;19.338;2023-04-29T10:36:41;15.20;97.90
40952;DHT22;26682;51.660;19.338;2023-04-29T10:39:49;15.30;98.50
40952;DHT22;26682;51.660;19.338;2023-04-29T10:42:36;15.40;98.10
40952;DHT22;26682;51.660;19.338;2023-04-29T10:45:31;15.40;97.00
40952;DHT22;26682;51.660;19.338;2023-04-29T10:48:16;15.30;97.10
40952;DHT22;26682;51.660;19.338;2023-04-29T10:51:10;15.10;97.60
40952;DHT22;26682;51.660;19.338;2023-04-29T10:54:05;15.10;98.00
40952;DHT22;26682;51.660;19.338;2023-04-29T10:56:48;15.10;98.20
40952;DHT22;26682;51.660;19.338;2023-04-29T11:02:14;15.00;98.30
40952;DHT22;26682;51.660;19.338;2023-04-29T11:05:08;14.70;98.30
40952;DHT22;26682;51.660;19.338;2023-04-29T11:08:13;14.80;99.00
40952;DHT22;26682;51.660;19.338;2023-04-29T11:11:05;14.70;99.00
40952;DHT22;26682;51.660;19.338;2023-04-29T11:13:51;14.70;99.10
40952;DHT22;26682;51.660;19.338;2023-04-29T11:16:35;14.60;99.10
40952;DHT22;26682;51.660;19.338;2023-04-29T11:19:32;14.60;99.90
40952;DHT22;26682;51.660;19.338;2023-04-29T11:25:07;14.70;99.40
40952;DHT22;26682;51.660;19.338;2023-04-29T11:27:51;14.90;99.00
40952;DHT22;26682;51.660;19.338;2023-04-29T11:30:37;15.00;99.20
40952;DHT22;26682;51.660;19.338;2023-04-29T11:33:19;15.20;99.20
40952;DHT22;26682;51.660;19.338;2023-04-29T11:36:03;15.50;99.30
40952;DHT22;26682;51.660;19.338;2023-04-29T11:38:45;15.70;98.30
40952;DHT22;26682;51.660;19.338;2023-04-29T11:41:29;15.80;98.30
40952;DHT22;26682;51.660;19.338;2023-04-29T11:44:12;15.80;98.20
40952;DHT22;26682;51.660;19.338;2023-04-29T11:47:07;15.70;98.00
40952;DHT22;26682;51.660;19.338;2023-04-29T11:49:49;15.70;98.70
40952;DHT22;26682;51.660;19.338;2023-04-29T11:52:34;15.70;98.30
40952;DHT22;26682;51.660;19.338;2023-04-29T11:55:18;15.70;98.30
40952;DHT22;26682;51.660;19.338;2023-04-29T11:58:02;15.90;98.60
40952;DHT22;26682;51.660;19.338;2023-04-29T12:00:46;16.00;98.20
40952;DHT22;26682;51.660;19.338;2023-04-29T12:03:31;16.00;98.00
40952;DHT22;26682;51.660;19.338;2023-04-29T12:06:13;16.20;97.90
40952;DHT22;26682;51.660;19.338;2023-04-29T12:09:00;16.20;97.40
40952;DHT22;26682;51.660;19.338;2023-04-29T12:11:42;16.20;97.40
40952;DHT22;26682;51.660;19.338;2023-04-29T12:14:26;16.00;97.70
40952;DHT22;26682;51.660;19.338;2023-04-29T12:17:09;16.00;98.40
40952;DHT22;26682;51.660;19.338;2023-04-29T12:19:52;16.00;98.30
40952;DHT22;26682;51.660;19.338;2023-04-29T12:22:35;16.10;98.60
40952;DHT22;26682;51.660;19.338;2023-04-29T12:25:18;16.00;98.30
40952;DHT22;26682;51.660;19.338;2023-04-29T12:28:03;16.00;98.30
40952;DHT22;26682;51.660;19.338;2023-04-29T12:30:51;16.10;98.40
40952;DHT22;26682;51.660;19.338;2023-04-29T12:33:35;16.10;98.10
40952;DHT22;26682;51.660;19.338;2023-04-29T12:36:18;16.00;98.00
40952;DHT22;26682;51.660;19.338;2023-04-29T12:39:00;15.90;98.30
40952;DHT22;26682;51.660;19.338;2023-04-29T12:41:43;15.80;98.50
40952;DHT22;26682;51.660;19.338;2023-04-29T12:44:33;15.80;98.90
40952;DHT22;26682;51.660;19.338;2023-04-29T12:47:16;15.80;99.10
40952;DHT22;26682;51.660;19.338;2023-04-29T12:50:00;15.90;98.90
40952;DHT22;26682;51.660;19.338;2023-04-29T12:52:42;15.90;99.20
40952;DHT22;26682;51.660;19.338;2023-04-29T12:55:24;16.00;99.00
40952;DHT22;26682;51.660;19.338;2023-04-29T12:58:07;15.90;98.90
40952;DHT22;26682;51.660;19.338;2023-04-29T13:00:50;15.80;98.90
40952;DHT22;26682;51.660;19.338;2023-04-29T13:03:33;15.80;99.00
40952;DHT22;26682;51.660;19.338;2023-04-29T13:06:15;15.90;99.00
40952;DHT22;26682;51.660;19.338;2023-04-29T13:08:58;15.90;98.80
40952;DHT22;26682;51.660;19.338;2023-04-29T13:11:41;15.90;98.90
40952;DHT22;26682;51.660;19.338;2023-04-29T13:14:23;16.10;98.80
40952;DHT22;26682;51.660;19.338;2023-04-29T13:17:06;16.10;98.90
40952;DHT22;26682;51.660;19.338;2023-04-29T13:19:48;16.10;98.50
40952;DHT22;26682;51.660;19.338;2023-04-29T13:22:33;16.20;98.70
40952;DHT22;26682;51.660;19.338;2023-04-29T13:25:16;16.30;98.40
40952;DHT22;26682;51.660;19.338;2023-04-29T13:27:58;16.50;98.70
40952;DHT22;26682;51.660;19.338;2023-04-29T13:30:41;16.50;98.10
40952;DHT22;26682;51.660;19.338;2023-04-29T13:33:24;16.50;98.30
40952;DHT22;26682;51.660;19.338;2023-04-29T13:36:07;16.60;98.10
40952;DHT22;26682;51.660;19.338;2023-04-29T13:38:50;16.60;98.10
40952;DHT22;26682;51.660;19.338;2023-04-29T13:41:37;16.60;98.40
40952;DHT22;26682;51.660;19.338;2023-04-29T13:44:25;16.60;97.80
40952;DHT22;26682;51.660;19.338;2023-04-29T13:47:27;16.60;97.90
40952;DHT22;26682;51.660;19.338;2023-04-29T13:50:12;16.60;98.40
40952;DHT22;26682;51.660;19.338;2023-04-29T13:53:16;16.70;98.40
40952;DHT22;26682;51.660;19.338;2023-04-29T13:56:19;16.70;97.60
40952;DHT22;26682;51.660;19.338;2023-04-29T13:59:05;16.60;97.40
40952;DHT22;26682;51.660;19.338;2023-04-29T14:01:51;16.50;97.70
40952;DHT22;26682;51.660;19.338;2023-04-29T14:04:37;16.50;98.00
40952;DHT22;26682;51.660;19.338;2023-04-29T14:07:20;16.50;97.90
40952;DHT22;26682;51.660;19.338;2023-04-29T14:10:04;16.40;97.60
40952;DHT22;26682;51.660;19.338;2023-04-29T14:12:47;16.40;97.80
40952;DHT22;26682;51.660;19.338;2023-04-29T14:15:30;16.50;97.70
40952;DHT22;26682;51.660;19.338;2023-04-29T14:18:13;16.40;97.90
40952;DHT22;26682;51.660;19.338;2023-04-29T14:20:56;16.30;98.10
40952;DHT22;26682;51.660;19.338;2023-04-29T14:23:40;16.20;98.10
40952;DHT22;26682;51.660;19.338;2023-04-29T14:26:23;16.30;98.40
40952;DHT22;26682;51.660;19.338;2023-04-29T14:29:09;16.40;99.00
40952;DHT22;26682;51.660;19.338;2023-04-29T14:31:52;16.50;98.30
40952;DHT22;26682;51.660;19.338;2023-04-29T14:34:34;16.50;98.60
40952;DHT22;26682;51.660;19.338;2023-04-29T14:37:20;16.50;98.40
40952;DHT22;26682;51.660;19.338;2023-04-29T14:40:03;16.60;98.60
40952;DHT22;26682;51.660;19.338;2023-04-29T14:42:46;16.60;98.20
40952;DHT22;26682;51.660;19.338;2023-04-29T14:45:29;16.50;99.00
40952;DHT22;26682;51.660;19.338;2023-04-29T14:48:11;16.50;99.10
40952;DHT22;26682;51.660;19.338;2023-04-29T14:50:54;16.50;98.70
40952;DHT22;26682;51.660;19.338;2023-04-29T14:53:37;16.50;98.40
40952;DHT22;26682;51.660;19.338;2023-04-29T14:56:20;16.70;98.90
40952;DHT22;26682;51.660;19.338;2023-04-29T14:59:03;16.80;98.70
40952;DHT22;26682;51.660;19.338;2023-04-29T15:01:48;16.80;98.50
40952;DHT22;26682;51.660;19.338;2023-04-29T15:04:31;16.60;98.50
40952;DHT22;26682;51.660;19.338;2023-04-29T15:07:14;16.50;98.60
40952;DHT22;26682;51.660;19.338;2023-04-29T15:09:57;16.30;98.90
40952;DHT22;26682;51.660;19.338;2023-04-29T15:12:39;16.20;99.00
40952;DHT22;26682;51.660;19.338;2023-04-29T15:15:22;16.20;99.40
40952;DHT22;26682;51.660;19.338;2023-04-29T15:18:05;16.20;99.40
40952;DHT22;26682;51.660;19.338;2023-04-29T15:20:50;16.20;99.50
40952;DHT22;26682;51.660;19.338;2023-04-29T15:23:32;16.20;99.60
40952;DHT22;26682;51.660;19.338;2023-04-29T15:26:15;16.10;99.80
40952;DHT22;26682;51.660;19.338;2023-04-29T15:28:58;16.10;99.70
40952;DHT22;26682;51.660;19.338;2023-04-29T15:31:40;16.20;99.60
40952;DHT22;26682;51.660;19.338;2023-04-29T15:34:23;16.20;99.60
40952;DHT22;26682;51.660;19.338;2023-04-29T15:37:05;16.30;99.60
40952;DHT22;26682;51.660;19.338;2023-04-29T15:39:48;16.30;99.40
40952;DHT22;26682;51.660;19.338;2023-04-29T15:42:30;16.50;99.50
40952;DHT22;26682;51.660;19.338;2023-04-29T15:45:13;16.40;99.10
40952;DHT22;26682;51.660;19.338;2023-04-29T15:47:55;16.40;99.50
40952;DHT22;26682;51.660;19.338;2023-04-29T15:50:38;16.40;99.90
40952;DHT22;26682;51.660;19.338;2023-04-29T15:53:20;16.30;99.90
40952;DHT22;26682;51.660;19.338;2023-04-29T15:56:04;16.20;99.90
40952;DHT22;26682;51.660;19.338;2023-04-29T15:58:47;16.20;99.90
40952;DHT22;26682;51.660;19.338;2023-04-29T16:01:30;16.20;99.90
40952;DHT22;26682;51.660;19.338;2023-04-29T16:04:15;16.20;99.90
40952;DHT22;26682;51.660;19.338;2023-04-29T16:06:57;16.20;99.90
40952;DHT22;26682;51.660;19.338;2023-04-29T16:09:40;16.20;99.90
40952;DHT22;26682;51.660;19.338;2023-04-29T16:12:22;16.10;99.90
40952;DHT22;26682;51.660;19.338;2023-04-29T16:15:05;16.10;99.90
40952;DHT22;26682;51.660;19.338;2023-04-29T16:17:50;16.10;99.90
40952;DHT22;26682;51.660;19.338;2023-04-29T16:20:33;16.00;99.90
40952;DHT22;26682;51.660;19.338;2023-04-29T16:23:15;15.90;99.90
40952;DHT22;26682;51.660;19.338;2023-04-29T16:25:59;15.90;99.90
40952;DHT22;26682;51.660;19.338;2023-04-29T16:28:42;15.90;99.90
40952;DHT22;26682;51.660;19.338;2023-04-29T16:31:24;15.80;99.90
40952;DHT22;26682;51.660;19.338;2023-04-29T16:34:07;15.70;99.90
40952;DHT22;26682;51.660;19.338;2023-04-29T16:36:50;15.60;99.90
40952;DHT22;26682;51.660;19.338;2023-04-29T16:39:32;15.50;99.90
40952;DHT22;26682;51.660;19.338;2023-04-29T16:42:15;15.50;99.90
40952;DHT22;26682;51.660;19.338;2023-04-29T16:44:57;15.50;99.90
40952;DHT22;26682;51.660;19.338;2023-04-29T16:47:40;15.40;99.90
40952;DHT22;26682;51.660;19.338;2023-04-29T16:50:23;15.30;99.90
40952;DHT22;26682;51.660;19.338;2023-04-29T16:53:06;15.20;99.90
40952;DHT22;26682;51.660;19.338;2023-04-29T16:55:48;15.20;99.90
40952;DHT22;26682;51.660;19.338;2023-04-29T16:58:34;15.10;99.90
40952;DHT22;26682;51.660;19.338;2023-04-29T17:01:16;15.10;99.90
40952;DHT22;26682;51.660;19.338;2023-04-29T17:04:02;15.10;99.90
40952;DHT22;26682;51.660;19.338;2023-04-29T17:06:45;15.00;99.90
40952;DHT22;26682;51.660;19.338;2023-04-29T17:09:27;14.90;99.90
40952;DHT22;26682;51.660;19.338;2023-04-29T17:12:09;14.80;99.90
40952;DHT22;26682;51.660;19.338;2023-04-29T17:14:53;14.70;99.90
40952;DHT22;26682;51.660;19.338;2023-04-29T17:17:36;14.60;99.90
40952;DHT22;26682;51.660;19.338;2023-04-29T17:20:19;14.50;99.90
40952;DHT22;26682;51.660;19.338;2023-04-29T17:23:02;14.50;99.90
40952;DHT22;26682;51.660;19.338;2023-04-29T17:25:45;14.50;99.90
40952;DHT22;26682;51.660;19.338;2023-04-29T17:28:27;14.40;99.90